sensor_id;sensor_type;location;lat;lon;timestamp;P1;durP1;ratioP1;P2;durP2;ratioP2
43640;SDS011;72791;52.546;13.570;2024-02-26T00:00:43;15.82;;;10.82;;
43640;SDS011;72791;52.546;13.570;2024-02-26T00:03:08;18.55;;;11.88;;
43640;SDS011;72791;52.546;13.570;2024-02-26T00:05:34;17.77;;;12.05;;
43640;SDS011;72791;52.546;13.570;2024-02-26T00:08:00;16.95;;;11.65;;
43640;SDS011;72791;52.546;13.570;2024-02-26T00:10:26;18.73;;;11.10;;
43640;SDS011;72791;52.546;13.570;2024-02-26T00:12:55;18.83;;;11.85;;
43640;SDS011;72791;52.546;13.570;2024-02-26T00:15:20;17.45;;;10.88;;
43640;SDS011;72791;52.546;13.570;2024-02-26T00:17:46;16.67;;;11.27;;
43640;SDS011;72791;52.546;13.570;2024-02-26T00:20:12;17.70;;;10.98;;
43640;SDS011;72791;52.546;13.570;2024-02-26T00:22:38;17.58;;;11.07;;
43640;SDS011;72791;52.546;13.570;2024-02-26T00:25:04;13.85;;;10.02;;
43640;SDS011;72791;52.546;13.570;2024-02-26T00:27:30;13.98;;;9.35;;
43640;SDS011;72791;52.546;13.570;2024-02-26T00:29:57;17.40;;;10.57;;
43640;SDS011;72791;52.546;13.570;2024-02-26T00:32:23;16.08;;;10.60;;
43640;SDS011;72791;52.546;13.570;2024-02-26T00:34:48;17.40;;;10.40;;
43640;SDS011;72791;52.546;13.570;2024-02-26T00:37:15;15.73;;;10.73;;
43640;SDS011;72791;52.546;13.570;2024-02-26T00:39:41;16.80;;;10.80;;
43640;SDS011;72791;52.546;13.570;2024-02-26T00:42:06;17.75;;;10.88;;
43640;SDS011;72791;52.546;13.570;2024-02-26T00:44:32;14.88;;;10.63;;
43640;SDS011;72791;52.546;13.570;2024-02-26T00:46:58;17.13;;;11.00;;
43640;SDS011;72791;52.546;13.570;2024-02-26T00:49:25;17.08;;;10.77;;
43640;SDS011;72791;52.546;13.570;2024-02-26T00:51:51;17.50;;;12.05;;
43640;SDS011;72791;52.546;13.570;2024-02-26T00:54:17;14.93;;;9.70;;
43640;SDS011;72791;52.546;13.570;2024-02-26T00:56:42;14.35;;;10.38;;
43640;SDS011;72791;52.546;13.570;2024-02-26T00:59:11;14.27;;;10.23;;
43640;SDS011;72791;52.546;13.570;2024-02-26T01:01:38;13.27;;;9.95;;
43640;SDS011;72791;52.546;13.570;2024-02-26T01:04:04;15.38;;;10.30;;
43640;SDS011;72791;52.546;13.570;2024-02-26T01:06:30;12.88;;;9.55;;
43640;SDS011;72791;52.546;13.570;2024-02-26T01:08:57;14.43;;;9.77;;
43640;SDS011;72791;52.546;13.570;2024-02-26T01:11:22;12.15;;;7.88;;
43640;SDS011;72791;52.546;13.570;2024-02-26T01:13:48;14.88;;;8.15;;
43640;SDS011;72791;52.546;13.570;2024-02-26T01:16:18;11.65;;;7.60;;
43640;SDS011;72791;52.546;13.570;2024-02-26T01:18:44;12.90;;;8.60;;
43640;SDS011;72791;52.546;13.570;2024-02-26T01:21:10;12.40;;;8.40;;
43640;SDS011;72791;52.546;13.570;2024-02-26T01:23:37;12.60;;;8.23;;
43640;SDS011;72791;52.546;13.570;2024-02-26T01:26:03;13.68;;;9.30;;
43640;SDS011;72791;52.546;13.570;2024-02-26T01:28:31;11.98;;;8.57;;
43640;SDS011;72791;52.546;13.570;2024-02-26T01:30:57;10.55;;;7.65;;
43640;SDS011;72791;52.546;13.570;2024-02-26T01:33:25;11.30;;;7.80;;
43640;SDS011;72791;52.546;13.570;2024-02-26T01:35:51;12.63;;;8.48;;
43640;SDS011;72791;52.546;13.570;2024-02-26T01:38:18;13.20;;;7.82;;
43640;SDS011;72791;52.546;13.570;2024-02-26T01:40:44;12.05;;;7.88;;
43640;SDS011;72791;52.546;13.570;2024-02-26T01:43:09;12.88;;;8.07;;
43640;SDS011;72791;52.546;13.570;2024-02-26T01:45:36;16.83;;;8.02;;
43640;SDS011;72791;52.546;13.570;2024-02-26T01:48:02;11.73;;;8.07;;
43640;SDS011;72791;52.546;13.570;2024-02-26T01:50:28;12.30;;;7.63;;
43640;SDS011;72791;52.546;13.570;2024-02-26T01:52:54;12.80;;;9.35;;
43640;SDS011;72791;52.546;13.570;2024-02-26T01:55:22;16.80;;;8.95;;
43640;SDS011;72791;52.546;13.570;2024-02-26T01:57:50;13.30;;;8.60;;
43640;SDS011;72791;52.546;13.570;2024-02-26T02:00:18;13.40;;;9.88;;
43640;SDS011;72791;52.546;13.570;2024-02-26T02:02:45;13.73;;;9.45;;
43640;SDS011;72791;52.546;13.570;2024-02-26T02:05:13;16.05;;;9.25;;
43640;SDS011;72791;52.546;13.570;2024-02-26T02:07:43;13.68;;;8.70;;
43640;SDS011;72791;52.546;13.570;2024-02-26T02:10:09;13.65;;;8.73;;
43640;SDS011;72791;52.546;13.570;2024-02-26T02:12:35;13.23;;;8.43;;
43640;SDS011;72791;52.546;13.570;2024-02-26T02:15:04;14.45;;;8.57;;
43640;SDS011;72791;52.546;13.570;2024-02-26T02:17:32;12.95;;;8.90;;
43640;SDS011;72791;52.546;13.570;2024-02-26T02:19:58;12.27;;;7.30;;
43640;SDS011;72791;52.546;13.570;2024-02-26T02:22:25;12.68;;;7.95;;
43640;SDS011;72791;52.546;13.570;2024-02-26T02:24:52;14.85;;;8.43;;
43640;SDS011;72791;52.546;13.570;2024-02-26T02:27:19;14.70;;;8.60;;
43640;SDS011;72791;52.546;13.570;2024-02-26T02:29:49;16.67;;;8.73;;
43640;SDS011;72791;52.546;13.570;2024-02-26T02:32:15;15.95;;;9.07;;
43640;SDS011;72791;52.546;13.570;2024-02-26T02:34:42;14.85;;;8.77;;
43640;SDS011;72791;52.546;13.570;2024-02-26T02:37:09;16.23;;;9.25;;
43640;SDS011;72791;52.546;13.570;2024-02-26T02:39:35;14.20;;;9.20;;
43640;SDS011;72791;52.546;13.570;2024-02-26T02:42:00;14.27;;;9.05;;
43640;SDS011;72791;52.546;13.570;2024-02-26T02:44:26;19.05;;;9.70;;
43640;SDS011;72791;52.546;13.570;2024-02-26T02:46:52;13.52;;;8.52;;
43640;SDS011;72791;52.546;13.570;2024-02-26T02:49:18;14.85;;;9.18;;
43640;SDS011;72791;52.546;13.570;2024-02-26T02:51:44;16.50;;;9.82;;
43640;SDS011;72791;52.546;13.570;2024-02-26T02:54:10;15.23;;;8.80;;
43640;SDS011;72791;52.546;13.570;2024-02-26T02:56:35;14.07;;;9.13;;
43640;SDS011;72791;52.546;13.570;2024-02-26T02:59:02;18.20;;;10.60;;
43640;SDS011;72791;52.546;13.570;2024-02-26T03:01:32;14.55;;;9.93;;
43640;SDS011;72791;52.546;13.570;2024-02-26T03:03:58;16.95;;;10.93;;
43640;SDS011;72791;52.546;13.570;2024-02-26T03:06:24;18.38;;;10.27;;
43640;SDS011;72791;52.546;13.570;2024-02-26T03:08:51;19.10;;;10.93;;
43640;SDS011;72791;52.546;13.570;2024-02-26T03:11:17;18.83;;;10.77;;
43640;SDS011;72791;52.546;13.570;2024-02-26T03:13:43;18.20;;;10.15;;
43640;SDS011;72791;52.546;13.570;2024-02-26T03:16:11;18.23;;;10.82;;
43640;SDS011;72791;52.546;13.570;2024-02-26T03:18:40;18.02;;;10.77;;
43640;SDS011;72791;52.546;13.570;2024-02-26T03:21:08;18.88;;;11.10;;
43640;SDS011;72791;52.546;13.570;2024-02-26T03:23:35;19.52;;;11.57;;
43640;SDS011;72791;52.546;13.570;2024-02-26T03:26:02;18.98;;;11.18;;
43640;SDS011;72791;52.546;13.570;2024-02-26T03:28:31;17.25;;;11.20;;
43640;SDS011;72791;52.546;13.570;2024-02-26T03:30:58;18.25;;;10.77;;
43640;SDS011;72791;52.546;13.570;2024-02-26T03:33:24;18.63;;;11.02;;
43640;SDS011;72791;52.546;13.570;2024-02-26T03:35:50;22.10;;;11.65;;
43640;SDS011;72791;52.546;13.570;2024-02-26T03:38:17;20.42;;;11.85;;
43640;SDS011;72791;52.546;13.570;2024-02-26T03:40:43;20.23;;;11.65;;
43640;SDS011;72791;52.546;13.570;2024-02-26T03:43:10;19.50;;;11.88;;
43640;SDS011;72791;52.546;13.570;2024-02-26T03:45:39;21.50;;;11.73;;
43640;SDS011;72791;52.546;13.570;2024-02-26T03:48:05;21.13;;;11.98;;
43640;SDS011;72791;52.546;13.570;2024-02-26T03:50:36;26.35;;;12.80;;
43640;SDS011;72791;52.546;13.570;2024-02-26T03:53:01;20.55;;;11.98;;
43640;SDS011;72791;52.546;13.570;2024-02-26T03:55:27;20.88;;;12.55;;
43640;SDS011;72791;52.546;13.570;2024-02-26T03:57:53;21.15;;;12.63;;
43640;SDS011;72791;52.546;13.570;2024-02-26T04:00:19;20.23;;;12.30;;
43640;SDS011;72791;52.546;13.570;2024-02-26T04:02:48;22.73;;;12.82;;
43640;SDS011;72791;52.546;13.570;2024-02-26T04:05:14;23.73;;;13.23;;
43640;SDS011;72791;52.546;13.570;2024-02-26T04:07:41;21.88;;;12.68;;
43640;SDS011;72791;52.546;13.570;2024-02-26T04:10:10;26.42;;;14.30;;
43640;SDS011;72791;52.546;13.570;2024-02-26T04:12:39;27.40;;;12.80;;
43640;SDS011;72791;52.546;13.570;2024-02-26T04:15:06;22.63;;;13.57;;
43640;SDS011;72791;52.546;13.570;2024-02-26T04:17:33;24.83;;;14.13;;
43640;SDS011;72791;52.546;13.570;2024-02-26T04:20:01;25.50;;;13.35;;
43640;SDS011;72791;52.546;13.570;2024-02-26T04:22:28;26.50;;;14.07;;
43640;SDS011;72791;52.546;13.570;2024-02-26T04:24:54;22.73;;;14.07;;
43640;SDS011;72791;52.546;13.570;2024-02-26T04:27:20;25.98;;;14.15;;
43640;SDS011;72791;52.546;13.570;2024-02-26T04:29:45;24.48;;;14.10;;
43640;SDS011;72791;52.546;13.570;2024-02-26T04:32:11;30.27;;;15.10;;
43640;SDS011;72791;52.546;13.570;2024-02-26T04:34:38;32.42;;;14.65;;
43640;SDS011;72791;52.546;13.570;2024-02-26T04:37:03;30.00;;;15.70;;
43640;SDS011;72791;52.546;13.570;2024-02-26T04:39:29;28.90;;;16.08;;
43640;SDS011;72791;52.546;13.570;2024-02-26T04:41:55;31.27;;;16.20;;
43640;SDS011;72791;52.546;13.570;2024-02-26T04:44:22;31.40;;;16.30;;
43640;SDS011;72791;52.546;13.570;2024-02-26T04:46:48;27.00;;;15.35;;
43640;SDS011;72791;52.546;13.570;2024-02-26T04:49:14;31.73;;;15.93;;
43640;SDS011;72791;52.546;13.570;2024-02-26T04:51:39;28.05;;;14.93;;
43640;SDS011;72791;52.546;13.570;2024-02-26T04:54:06;30.35;;;15.02;;
43640;SDS011;72791;52.546;13.570;2024-02-26T04:56:32;29.70;;;16.15;;
43640;SDS011;72791;52.546;13.570;2024-02-26T04:58:57;29.45;;;16.60;;
43640;SDS011;72791;52.546;13.570;2024-02-26T05:01:24;30.02;;;16.27;;
43640;SDS011;72791;52.546;13.570;2024-02-26T05:03:53;32.03;;;17.00;;
43640;SDS011;72791;52.546;13.570;2024-02-26T05:06:19;31.80;;;16.70;;
43640;SDS011;72791;52.546;13.570;2024-02-26T05:08:45;31.65;;;16.73;;
43640;SDS011;72791;52.546;13.570;2024-02-26T05:11:11;33.30;;;17.33;;
43640;SDS011;72791;52.546;13.570;2024-02-26T05:13:37;34.15;;;17.45;;
43640;SDS011;72791;52.546;13.570;2024-02-26T05:16:03;35.22;;;17.60;;
43640;SDS011;72791;52.546;13.570;2024-02-26T05:18:29;31.60;;;15.82;;
43640;SDS011;72791;52.546;13.570;2024-02-26T05:20:59;36.05;;;17.65;;
43640;SDS011;72791;52.546;13.570;2024-02-26T05:23:25;32.58;;;17.33;;
43640;SDS011;72791;52.546;13.570;2024-02-26T05:25:51;33.63;;;17.67;;
43640;SDS011;72791;52.546;13.570;2024-02-26T05:28:17;31.63;;;17.20;;
43640;SDS011;72791;52.546;13.570;2024-02-26T05:30:45;29.40;;;15.60;;
43640;SDS011;72791;52.546;13.570;2024-02-26T05:33:11;30.40;;;16.58;;
43640;SDS011;72791;52.546;13.570;2024-02-26T05:35:39;36.47;;;16.73;;
43640;SDS011;72791;52.546;13.570;2024-02-26T05:38:06;30.48;;;16.55;;
43640;SDS011;72791;52.546;13.570;2024-02-26T05:40:32;34.90;;;17.55;;
43640;SDS011;72791;52.546;13.570;2024-02-26T05:42:59;32.38;;;18.15;;
43640;SDS011;72791;52.546;13.570;2024-02-26T05:45:26;33.65;;;18.05;;
43640;SDS011;72791;52.546;13.570;2024-02-26T05:47:52;31.73;;;17.70;;
43640;SDS011;72791;52.546;13.570;2024-02-26T05:50:20;30.48;;;17.05;;
43640;SDS011;72791;52.546;13.570;2024-02-26T05:52:46;28.75;;;16.52;;
43640;SDS011;72791;52.546;13.570;2024-02-26T05:55:12;37.00;;;18.40;;
43640;SDS011;72791;52.546;13.570;2024-02-26T05:57:38;38.40;;;18.30;;
43640;SDS011;72791;52.546;13.570;2024-02-26T06:00:05;33.47;;;16.38;;
43640;SDS011;72791;52.546;13.570;2024-02-26T06:02:32;36.97;;;18.58;;
43640;SDS011;72791;52.546;13.570;2024-02-26T06:04:58;35.97;;;18.25;;
43640;SDS011;72791;52.546;13.570;2024-02-26T06:07:24;36.50;;;18.27;;
43640;SDS011;72791;52.546;13.570;2024-02-26T06:09:50;36.42;;;19.42;;
43640;SDS011;72791;52.546;13.570;2024-02-26T06:12:16;36.72;;;18.90;;
43640;SDS011;72791;52.546;13.570;2024-02-26T06:14:42;37.10;;;18.98;;
43640;SDS011;72791;52.546;13.570;2024-02-26T06:17:10;38.10;;;18.60;;
43640;SDS011;72791;52.546;13.570;2024-02-26T06:19:35;39.75;;;19.27;;
43640;SDS011;72791;52.546;13.570;2024-02-26T06:22:01;42.13;;;18.88;;
43640;SDS011;72791;52.546;13.570;2024-02-26T06:24:27;37.90;;;20.08;;
43640;SDS011;72791;52.546;13.570;2024-02-26T06:26:53;40.25;;;20.55;;
43640;SDS011;72791;52.546;13.570;2024-02-26T06:29:18;37.80;;;19.75;;
43640;SDS011;72791;52.546;13.570;2024-02-26T06:31:44;35.15;;;20.08;;
43640;SDS011;72791;52.546;13.570;2024-02-26T06:34:11;37.35;;;19.17;;
43640;SDS011;72791;52.546;13.570;2024-02-26T06:36:37;43.35;;;21.52;;
43640;SDS011;72791;52.546;13.570;2024-02-26T06:39:03;41.33;;;20.90;;
43640;SDS011;72791;52.546;13.570;2024-02-26T06:41:30;34.85;;;19.02;;
43640;SDS011;72791;52.546;13.570;2024-02-26T06:43:56;42.28;;;20.92;;
43640;SDS011;72791;52.546;13.570;2024-02-26T06:46:22;41.78;;;20.08;;
43640;SDS011;72791;52.546;13.570;2024-02-26T06:49:08;38.78;;;20.20;;
43640;SDS011;72791;52.546;13.570;2024-02-26T06:51:35;42.03;;;20.88;;
43640;SDS011;72791;52.546;13.570;2024-02-26T06:54:00;41.28;;;21.92;;
43640;SDS011;72791;52.546;13.570;2024-02-26T06:56:27;39.95;;;20.73;;
43640;SDS011;72791;52.546;13.570;2024-02-26T06:58:54;43.92;;;22.10;;
43640;SDS011;72791;52.546;13.570;2024-02-26T07:01:21;46.00;;;21.75;;
43640;SDS011;72791;52.546;13.570;2024-02-26T07:03:46;49.20;;;22.83;;
43640;SDS011;72791;52.546;13.570;2024-02-26T07:06:12;46.38;;;22.33;;
43640;SDS011;72791;52.546;13.570;2024-02-26T07:08:40;54.67;;;24.05;;
43640;SDS011;72791;52.546;13.570;2024-02-26T07:11:08;47.72;;;23.73;;
43640;SDS011;72791;52.546;13.570;2024-02-26T07:13:35;41.22;;;22.55;;
43640;SDS011;72791;52.546;13.570;2024-02-26T07:16:02;48.05;;;23.25;;
43640;SDS011;72791;52.546;13.570;2024-02-26T07:18:29;46.80;;;22.63;;
43640;SDS011;72791;52.546;13.570;2024-02-26T07:20:57;48.20;;;22.98;;
43640;SDS011;72791;52.546;13.570;2024-02-26T07:23:24;47.70;;;23.05;;
43640;SDS011;72791;52.546;13.570;2024-02-26T07:25:49;49.38;;;23.65;;
43640;SDS011;72791;52.546;13.570;2024-02-26T07:28:17;47.45;;;24.23;;
43640;SDS011;72791;52.546;13.570;2024-02-26T07:30:44;48.17;;;22.73;;
43640;SDS011;72791;52.546;13.570;2024-02-26T07:33:10;46.92;;;23.98;;
43640;SDS011;72791;52.546;13.570;2024-02-26T07:35:36;45.00;;;22.40;;
43640;SDS011;72791;52.546;13.570;2024-02-26T07:38:04;44.33;;;22.52;;
43640;SDS011;72791;52.546;13.570;2024-02-26T07:40:30;46.45;;;23.65;;
43640;SDS011;72791;52.546;13.570;2024-02-26T07:42:56;48.13;;;22.65;;
43640;SDS011;72791;52.546;13.570;2024-02-26T07:45:25;48.13;;;22.40;;
43640;SDS011;72791;52.546;13.570;2024-02-26T07:47:51;45.85;;;22.73;;
43640;SDS011;72791;52.546;13.570;2024-02-26T07:50:17;43.85;;;22.63;;
43640;SDS011;72791;52.546;13.570;2024-02-26T07:52:44;43.05;;;21.70;;
43640;SDS011;72791;52.546;13.570;2024-02-26T07:55:11;43.20;;;22.67;;
43640;SDS011;72791;52.546;13.570;2024-02-26T07:57:36;45.63;;;23.02;;
43640;SDS011;72791;52.546;13.570;2024-02-26T08:00:06;44.90;;;21.67;;
43640;SDS011;72791;52.546;13.570;2024-02-26T08:02:34;40.33;;;21.67;;
43640;SDS011;72791;52.546;13.570;2024-02-26T08:05:00;44.47;;;24.30;;
43640;SDS011;72791;52.546;13.570;2024-02-26T08:07:27;47.88;;;24.15;;
43640;SDS011;72791;52.546;13.570;2024-02-26T08:09:54;42.03;;;22.85;;
43640;SDS011;72791;52.546;13.570;2024-02-26T08:12:20;42.03;;;22.17;;
43640;SDS011;72791;52.546;13.570;2024-02-26T08:14:46;43.40;;;22.38;;
43640;SDS011;72791;52.546;13.570;2024-02-26T08:17:13;43.58;;;22.38;;
43640;SDS011;72791;52.546;13.570;2024-02-26T08:19:38;41.35;;;21.25;;
43640;SDS011;72791;52.546;13.570;2024-02-26T08:22:04;41.85;;;23.30;;
43640;SDS011;72791;52.546;13.570;2024-02-26T08:24:30;38.95;;;21.75;;
43640;SDS011;72791;52.546;13.570;2024-02-26T08:26:55;39.75;;;21.00;;
43640;SDS011;72791;52.546;13.570;2024-02-26T08:29:21;33.83;;;20.52;;
43640;SDS011;72791;52.546;13.570;2024-02-26T08:31:48;35.17;;;19.20;;
43640;SDS011;72791;52.546;13.570;2024-02-26T08:34:14;32.70;;;19.95;;
43640;SDS011;72791;52.546;13.570;2024-02-26T08:36:40;35.35;;;18.05;;
43640;SDS011;72791;52.546;13.570;2024-02-26T08:39:07;29.05;;;15.93;;
43640;SDS011;72791;52.546;13.570;2024-02-26T08:41:34;25.15;;;16.27;;
43640;SDS011;72791;52.546;13.570;2024-02-26T08:44:03;27.33;;;15.85;;
43640;SDS011;72791;52.546;13.570;2024-02-26T08:46:29;22.73;;;14.68;;
43640;SDS011;72791;52.546;13.570;2024-02-26T08:48:56;25.42;;;14.60;;
43640;SDS011;72791;52.546;13.570;2024-02-26T08:51:23;27.13;;;16.38;;
43640;SDS011;72791;52.546;13.570;2024-02-26T08:53:49;24.10;;;15.15;;
43640;SDS011;72791;52.546;13.570;2024-02-26T08:56:16;21.65;;;14.05;;
43640;SDS011;72791;52.546;13.570;2024-02-26T08:58:42;26.52;;;15.23;;
43640;SDS011;72791;52.546;13.570;2024-02-26T09:01:08;26.67;;;15.30;;
43640;SDS011;72791;52.546;13.570;2024-02-26T09:03:35;24.17;;;15.68;;
43640;SDS011;72791;52.546;13.570;2024-02-26T09:06:01;26.65;;;16.35;;
43640;SDS011;72791;52.546;13.570;2024-02-26T09:08:27;27.23;;;15.38;;
43640;SDS011;72791;52.546;13.570;2024-02-26T09:10:53;27.52;;;16.10;;
43640;SDS011;72791;52.546;13.570;2024-02-26T09:13:23;26.38;;;15.48;;
43640;SDS011;72791;52.546;13.570;2024-02-26T09:16:02;24.40;;;15.00;;
43640;SDS011;72791;52.546;13.570;2024-02-26T09:18:28;28.25;;;15.48;;
43640;SDS011;72791;52.546;13.570;2024-02-26T09:20:54;27.80;;;15.25;;
43640;SDS011;72791;52.546;13.570;2024-02-26T09:23:20;28.92;;;15.00;;
43640;SDS011;72791;52.546;13.570;2024-02-26T09:25:46;22.80;;;15.43;;
43640;SDS011;72791;52.546;13.570;2024-02-26T09:28:11;23.95;;;14.30;;
43640;SDS011;72791;52.546;13.570;2024-02-26T09:30:37;25.13;;;14.70;;
43640;SDS011;72791;52.546;13.570;2024-02-26T09:33:04;20.30;;;13.98;;
43640;SDS011;72791;52.546;13.570;2024-02-26T09:35:30;26.05;;;15.93;;
43640;SDS011;72791;52.546;13.570;2024-02-26T09:38:00;27.20;;;15.18;;
43640;SDS011;72791;52.546;13.570;2024-02-26T09:40:26;25.45;;;15.27;;
43640;SDS011;72791;52.546;13.570;2024-02-26T09:42:53;24.77;;;15.40;;
43640;SDS011;72791;52.546;13.570;2024-02-26T09:45:25;26.48;;;15.25;;
43640;SDS011;72791;52.546;13.570;2024-02-26T09:47:58;23.23;;;14.27;;
43640;SDS011;72791;52.546;13.570;2024-02-26T09:50:26;25.08;;;15.15;;
43640;SDS011;72791;52.546;13.570;2024-02-26T09:52:52;21.60;;;14.68;;
43640;SDS011;72791;52.546;13.570;2024-02-26T09:55:19;22.05;;;13.15;;
43640;SDS011;72791;52.546;13.570;2024-02-26T09:57:47;21.63;;;14.07;;
43640;SDS011;72791;52.546;13.570;2024-02-26T10:00:17;23.63;;;14.80;;
43640;SDS011;72791;52.546;13.570;2024-02-26T10:02:47;24.23;;;14.77;;
43640;SDS011;72791;52.546;13.570;2024-02-26T10:05:14;19.88;;;13.82;;
43640;SDS011;72791;52.546;13.570;2024-02-26T10:07:45;21.13;;;13.25;;
43640;SDS011;72791;52.546;13.570;2024-02-26T10:10:12;20.95;;;13.38;;
43640;SDS011;72791;52.546;13.570;2024-02-26T10:12:39;20.45;;;12.82;;
43640;SDS011;72791;52.546;13.570;2024-02-26T10:15:05;17.85;;;11.48;;
43640;SDS011;72791;52.546;13.570;2024-02-26T10:17:34;20.88;;;11.40;;
43640;SDS011;72791;52.546;13.570;2024-02-26T10:20:12;19.88;;;12.15;;
43640;SDS011;72791;52.546;13.570;2024-02-26T10:22:58;19.80;;;12.57;;
43640;SDS011;72791;52.546;13.570;2024-02-26T10:25:30;18.08;;;11.73;;
43640;SDS011;72791;52.546;13.570;2024-02-26T10:28:00;17.90;;;10.98;;
43640;SDS011;72791;52.546;13.570;2024-02-26T10:30:30;17.40;;;12.02;;
43640;SDS011;72791;52.546;13.570;2024-02-26T10:32:56;16.40;;;11.48;;
43640;SDS011;72791;52.546;13.570;2024-02-26T10:35:23;16.80;;;10.75;;
43640;SDS011;72791;52.546;13.570;2024-02-26T10:37:50;17.00;;;11.90;;
43640;SDS011;72791;52.546;13.570;2024-02-26T10:40:16;19.95;;;12.13;;
43640;SDS011;72791;52.546;13.570;2024-02-26T10:42:42;19.48;;;11.20;;
43640;SDS011;72791;52.546;13.570;2024-02-26T10:45:10;15.70;;;11.00;;
43640;SDS011;72791;52.546;13.570;2024-02-26T10:47:36;17.55;;;11.18;;
43640;SDS011;72791;52.546;13.570;2024-02-26T10:50:02;14.85;;;10.15;;
43640;SDS011;72791;52.546;13.570;2024-02-26T10:52:32;18.73;;;11.38;;
43640;SDS011;72791;52.546;13.570;2024-02-26T10:55:02;13.88;;;10.10;;
43640;SDS011;72791;52.546;13.570;2024-02-26T10:57:35;15.88;;;10.20;;
43640;SDS011;72791;52.546;13.570;2024-02-26T11:00:06;16.70;;;11.43;;
43640;SDS011;72791;52.546;13.570;2024-02-26T11:02:35;14.48;;;11.38;;
43640;SDS011;72791;52.546;13.570;2024-02-26T11:05:02;12.25;;;8.90;;
43640;SDS011;72791;52.546;13.570;2024-02-26T11:07:31;12.70;;;9.15;;
43640;SDS011;72791;52.546;13.570;2024-02-26T11:09:59;14.32;;;9.55;;
43640;SDS011;72791;52.546;13.570;2024-02-26T11:12:25;14.75;;;11.55;;
43640;SDS011;72791;52.546;13.570;2024-02-26T11:14:55;16.65;;;9.63;;
43640;SDS011;72791;52.546;13.570;2024-02-26T11:17:23;17.10;;;10.13;;
43640;SDS011;72791;52.546;13.570;2024-02-26T11:19:53;15.20;;;9.95;;
43640;SDS011;72791;52.546;13.570;2024-02-26T11:22:21;16.33;;;10.90;;
43640;SDS011;72791;52.546;13.570;2024-02-26T11:24:47;16.05;;;10.57;;
43640;SDS011;72791;52.546;13.570;2024-02-26T11:27:14;15.13;;;10.63;;
43640;SDS011;72791;52.546;13.570;2024-02-26T11:29:44;15.55;;;10.48;;
43640;SDS011;72791;52.546;13.570;2024-02-26T11:32:13;13.65;;;9.93;;
43640;SDS011;72791;52.546;13.570;2024-02-26T11:34:39;14.57;;;11.13;;
43640;SDS011;72791;52.546;13.570;2024-02-26T11:37:17;15.07;;;10.15;;
43640;SDS011;72791;52.546;13.570;2024-02-26T11:39:43;15.82;;;10.88;;
43640;SDS011;72791;52.546;13.570;2024-02-26T11:42:13;16.50;;;10.68;;
43640;SDS011;72791;52.546;13.570;2024-02-26T11:44:43;21.80;;;11.15;;
43640;SDS011;72791;52.546;13.570;2024-02-26T11:49:36;18.98;;;11.98;;
43640;SDS011;72791;52.546;13.570;2024-02-26T11:52:04;18.23;;;11.55;;
43640;SDS011;72791;52.546;13.570;2024-02-26T11:54:46;18.67;;;12.57;;
43640;SDS011;72791;52.546;13.570;2024-02-26T11:59:55;16.45;;;11.85;;
43640;SDS011;72791;52.546;13.570;2024-02-26T12:02:37;18.52;;;12.90;;
43640;SDS011;72791;52.546;13.570;2024-02-26T12:05:18;19.08;;;13.65;;
43640;SDS011;72791;52.546;13.570;2024-02-26T12:08:10;18.08;;;13.48;;
43640;SDS011;72791;52.546;13.570;2024-02-26T12:10:36;19.83;;;13.57;;
43640;SDS011;72791;52.546;13.570;2024-02-26T12:13:10;20.60;;;14.00;;
43640;SDS011;72791;52.546;13.570;2024-02-26T12:15:38;20.67;;;12.70;;
43640;SDS011;72791;52.546;13.570;2024-02-26T12:18:09;18.08;;;12.20;;
43640;SDS011;72791;52.546;13.570;2024-02-26T12:20:40;15.38;;;10.23;;
43640;SDS011;72791;52.546;13.570;2024-02-26T12:23:06;16.80;;;12.32;;
43640;SDS011;72791;52.546;13.570;2024-02-26T12:25:32;17.20;;;11.25;;
43640;SDS011;72791;52.546;13.570;2024-02-26T12:28:01;16.48;;;11.82;;
43640;SDS011;72791;52.546;13.570;2024-02-26T12:30:47;14.57;;;10.20;;
43640;SDS011;72791;52.546;13.570;2024-02-26T12:33:13;15.07;;;10.73;;
43640;SDS011;72791;52.546;13.570;2024-02-26T12:35:39;17.33;;;10.30;;
43640;SDS011;72791;52.546;13.570;2024-02-26T12:38:05;14.93;;;10.50;;
43640;SDS011;72791;52.546;13.570;2024-02-26T12:40:31;15.70;;;11.43;;
43640;SDS011;72791;52.546;13.570;2024-02-26T12:42:58;15.23;;;10.35;;
43640;SDS011;72791;52.546;13.570;2024-02-26T12:45:44;16.65;;;10.13;;
43640;SDS011;72791;52.546;13.570;2024-02-26T12:48:12;17.20;;;11.82;;
43640;SDS011;72791;52.546;13.570;2024-02-26T12:50:38;15.93;;;10.70;;
43640;SDS011;72791;52.546;13.570;2024-02-26T12:53:04;14.15;;;9.68;;
43640;SDS011;72791;52.546;13.570;2024-02-26T12:55:33;15.38;;;10.23;;
43640;SDS011;72791;52.546;13.570;2024-02-26T12:57:59;15.23;;;9.38;;
43640;SDS011;72791;52.546;13.570;2024-02-26T13:00:28;10.18;;;7.85;;
43640;SDS011;72791;52.546;13.570;2024-02-26T13:02:54;15.18;;;10.02;;
43640;SDS011;72791;52.546;13.570;2024-02-26T13:05:21;11.55;;;8.40;;
43640;SDS011;72791;52.546;13.570;2024-02-26T13:07:49;15.93;;;8.45;;
43640;SDS011;72791;52.546;13.570;2024-02-26T13:10:16;10.38;;;8.38;;
43640;SDS011;72791;52.546;13.570;2024-02-26T13:12:44;10.43;;;8.30;;
43640;SDS011;72791;52.546;13.570;2024-02-26T13:15:15;11.20;;;8.70;;
43640;SDS011;72791;52.546;13.570;2024-02-26T13:17:41;12.82;;;9.20;;
43640;SDS011;72791;52.546;13.570;2024-02-26T13:20:09;11.85;;;8.18;;
43640;SDS011;72791;52.546;13.570;2024-02-26T13:22:35;12.80;;;7.90;;
43640;SDS011;72791;52.546;13.570;2024-02-26T13:25:01;12.48;;;7.88;;
43640;SDS011;72791;52.546;13.570;2024-02-26T13:27:28;12.88;;;7.30;;
43640;SDS011;72791;52.546;13.570;2024-02-26T13:30:04;10.68;;;7.22;;
43640;SDS011;72791;52.546;13.570;2024-02-26T13:32:37;10.93;;;6.70;;
43640;SDS011;72791;52.546;13.570;2024-02-26T13:35:08;9.05;;;6.57;;
43640;SDS011;72791;52.546;13.570;2024-02-26T13:37:36;8.98;;;6.72;;
43640;SDS011;72791;52.546;13.570;2024-02-26T13:40:07;7.72;;;6.45;;
43640;SDS011;72791;52.546;13.570;2024-02-26T13:42:35;9.52;;;6.93;;
43640;SDS011;72791;52.546;13.570;2024-02-26T13:45:04;9.43;;;6.50;;
43640;SDS011;72791;52.546;13.570;2024-02-26T13:50:05;11.02;;;6.50;;
43640;SDS011;72791;52.546;13.570;2024-02-26T13:52:31;9.30;;;6.68;;
43640;SDS011;72791;52.546;13.570;2024-02-26T13:54:57;10.32;;;6.70;;
43640;SDS011;72791;52.546;13.570;2024-02-26T13:57:24;9.85;;;7.10;;
43640;SDS011;72791;52.546;13.570;2024-02-26T13:59:51;11.38;;;7.63;;
43640;SDS011;72791;52.546;13.570;2024-02-26T14:02:18;11.65;;;6.85;;
43640;SDS011;72791;52.546;13.570;2024-02-26T14:04:44;10.18;;;7.22;;
43640;SDS011;72791;52.546;13.570;2024-02-26T14:07:11;14.13;;;7.55;;
43640;SDS011;72791;52.546;13.570;2024-02-26T14:09:38;12.38;;;7.63;;
43640;SDS011;72791;52.546;13.570;2024-02-26T14:12:05;12.82;;;7.28;;
43640;SDS011;72791;52.546;13.570;2024-02-26T14:14:31;9.73;;;7.32;;
43640;SDS011;72791;52.546;13.570;2024-02-26T14:17:01;11.18;;;7.50;;
43640;SDS011;72791;52.546;13.570;2024-02-26T14:19:29;10.43;;;7.05;;
43640;SDS011;72791;52.546;13.570;2024-02-26T14:21:54;13.82;;;8.02;;